MSC Mara — V7NF9 — position and weather

sailwx.info

Track history (hours):
 
Tides and Currents Weather Stations Pressure Air Temp Water Temp Dewpoint Dewpoint Depression Visibility Wind Speed Wind Dir Waves Ship Positions

MSC Mara

Last reported at 2017-Jul-12 02:18 UTC. Time now 2017-Jul-23 12:31 UTC.
Position N 34°35' W 130°24'.
Warning: this ship's position is 11 days out of date.

Length 294 m; draft 9 m.

Type: Ship (hazmat cat C). MMSI: 538002955.

Date/timePositionNaut miles runAvg speedWind from/ knotsBaromVisibWave heightAir tempDewpointWater temp
2017-Jul-12 02:18N 34°35' W 130°24'617.4
2017-Jul-12 01:56N 34°32' W 130°18'2417.3
2017-Jul-12 00:32N 34°18' W 129°54'1217.3
2017-Jul-11 23:51N 34°11' W 129°42'617.5
2017-Jul-11 23:30N 34°07' W 129°37'1017.7
2017-Jul-11 22:58N 34°01' W 129°28'917.3
2017-Jul-11 22:26N 33°56' W 129°19'1017.4
2017-Jul-11 21:53N 33°50' W 129°09'917.5
2017-Jul-11 21:24N 33°45' W 129°01'1117.7
2017-Jul-11 20:45N 33°38' W 128°50'517.5
2017-Jul-11 20:29N 33°36' W 128°45'2815.9
2017-Jul-11 18:45N 33°19' W 128°19'615.9
2017-Jul-11 18:24N 33°16' W 128°14'2215.8
2017-Jul-11 17:01N 33°03' W 127°53'0 9.8
2017-Jul-11 17:00N 33°03' W 127°53'1615.6
2017-Jul-11 15:58N 32°53' W 127°37'1015.6
2017-Jul-11 15:19N 32°47' W 127°27'515.5
2017-Jul-11 15:00N 32°44' W 127°22'815.4
2017-Jul-11 14:27N 32°39' W 127°14'1216.7
2017-Jul-11 13:43N 32°32' W 127°03'417.1
2017-Jul-11 13:29N 32°30' W 126°59'816.9
2017-Jul-11 13:00N 32°25' W 126°51'916.8
2017-Jul-11 12:28N 32°20' W 126°42'716.2
2017-Jul-11 12:00N 32°15' W 126°35'16917.4
2017-Jul-11 02:15N 30°32' W 123°58'717.4
2017-Jul-11 01:52N 30°28' W 123°52'1617.3
2017-Jul-11 00:55N 30°17' W 123°37'1717.4
2017-Jul-10 23:56N 30°06' W 123°22'917.4
2017-Jul-10 23:25N 30°01' W 123°14'817.5
2017-Jul-10 22:59N 29°56' W 123°07'1017.6
2017-Jul-10 22:26N 29°50' W 122°58'1517.6
2017-Jul-10 21:36N 29°41' W 122°45'217.4
2017-Jul-10 21:30N 29°40' W 122°44'1017.6
2017-Jul-10 20:55N 29°33' W 122°34'817.8
2017-Jul-10 20:28N 29°28' W 122°27'1017.8
2017-Jul-10 19:54N 29°22' W 122°18'717.8
2017-Jul-10 19:30N 29°17' W 122°12'1216.4
2017-Jul-10 18:47N 29°10' W 122°02'516.5
2017-Jul-10 18:30N 29°07' W 121°57'816.4
2017-Jul-10 18:00N 29°02' W 121°50'816.2
2017-Jul-10 17:30N 28°57' W 121°43'1216.1
2017-Jul-10 16:45N 28°49' W 121°32'516.0
2017-Jul-10 16:27N 28°46' W 121°28'16317.0
2017-Jul-10 06:54N 27°02' W 119°07'6017.7
2017-Jul-10 03:30N 26°22' W 118°16'9517.8
2017-Jul-09 22:10N 25°20' W 116°57'14317.4
2017-Jul-09 13:56N 23°45' W 114°58'716.7
2017-Jul-09 13:30N 23°42' W 114°51'1916.9
2017-Jul-09 12:23N 23°34' W 114°33'716.9
2017-Jul-09 12:00N 23°31' W 114°26'917.1
2017-Jul-09 11:28N 23°27' W 114°18'816.9
2017-Jul-09 11:00N 23°23' W 114°10'816.8
2017-Jul-09 10:30N 23°19' W 114°02'1117.7
2017-Jul-09 09:54N 23°15' W 113°52'718.4
2017-Jul-09 09:30N 23°11' W 113°45'1318.4
2017-Jul-09 08:47N 23°05' W 113°32'1118.5
2017-Jul-09 08:12N 23°00' W 113°21'418.3
2017-Jul-09 07:59N 22°59' W 113°17'1318.3
2017-Jul-09 07:18N 22°53' W 113°05'  
2017-Jul-02 13:09N 22°40' W 113°43'216.8
2017-Jul-02 13:00N 22°42' W 113°45'1216.9
2017-Jul-02 12:19N 22°49' W 113°54'9216.7
2017-Jul-02 06:47N 23°52' W 115°08'1016.7
2017-Jul-02 06:10N 23°59' W 115°16'616.9
2017-Jul-02 05:48N 24°03' W 115°21'616.6
2017-Jul-02 05:27N 24°07' W 115°26'816.7
2017-Jul-02 05:00N 24°12' W 115°32'  
Track history (hours):
 
Tides and Currents Weather Stations Pressure Air Temp Water Temp Dewpoint Dewpoint Depression Visibility Wind Speed Wind Dir Waves Ship Positions

MSC Mara

Last reported at 2017-Jul-12 02:18 UTC. Time now 2017-Jul-23 12:31 UTC.
Position N 34°35' W 130°24'.
Warning: this ship's position is 11 days out of date.

Length 294 m; draft 9 m.

Type: Ship (hazmat cat C). MMSI: 538002955.

Date/timePositionNaut miles runAvg speedWind from/ knotsBaromVisibWave heightAir tempDewpointWater temp
2017-Jul-12 02:18N 34°35' W 130°24'617.4
2017-Jul-12 01:56N 34°32' W 130°18'2417.3
2017-Jul-12 00:32N 34°18' W 129°54'1217.3
2017-Jul-11 23:51N 34°11' W 129°42'617.5
2017-Jul-11 23:30N 34°07' W 129°37'1017.7
2017-Jul-11 22:58N 34°01' W 129°28'917.3
2017-Jul-11 22:26N 33°56' W 129°19'1017.4
2017-Jul-11 21:53N 33°50' W 129°09'917.5
2017-Jul-11 21:24N 33°45' W 129°01'1117.7
2017-Jul-11 20:45N 33°38' W 128°50'517.5
2017-Jul-11 20:29N 33°36' W 128°45'2815.9
2017-Jul-11 18:45N 33°19' W 128°19'615.9
2017-Jul-11 18:24N 33°16' W 128°14'2215.8
2017-Jul-11 17:01N 33°03' W 127°53'0 9.8
2017-Jul-11 17:00N 33°03' W 127°53'1615.6
2017-Jul-11 15:58N 32°53' W 127°37'1015.6
2017-Jul-11 15:19N 32°47' W 127°27'515.5
2017-Jul-11 15:00N 32°44' W 127°22'815.4
2017-Jul-11 14:27N 32°39' W 127°14'1216.7
2017-Jul-11 13:43N 32°32' W 127°03'417.1
2017-Jul-11 13:29N 32°30' W 126°59'816.9
2017-Jul-11 13:00N 32°25' W 126°51'916.8
2017-Jul-11 12:28N 32°20' W 126°42'716.2
2017-Jul-11 12:00N 32°15' W 126°35'16917.4
2017-Jul-11 02:15N 30°32' W 123°58'717.4
2017-Jul-11 01:52N 30°28' W 123°52'1617.3
2017-Jul-11 00:55N 30°17' W 123°37'1717.4
2017-Jul-10 23:56N 30°06' W 123°22'917.4
2017-Jul-10 23:25N 30°01' W 123°14'817.5
2017-Jul-10 22:59N 29°56' W 123°07'1017.6
2017-Jul-10 22:26N 29°50' W 122°58'1517.6
2017-Jul-10 21:36N 29°41' W 122°45'217.4
2017-Jul-10 21:30N 29°40' W 122°44'1017.6
2017-Jul-10 20:55N 29°33' W 122°34'817.8
2017-Jul-10 20:28N 29°28' W 122°27'1017.8
2017-Jul-10 19:54N 29°22' W 122°18'717.8
2017-Jul-10 19:30N 29°17' W 122°12'1216.4
2017-Jul-10 18:47N 29°10' W 122°02'516.5
2017-Jul-10 18:30N 29°07' W 121°57'816.4
2017-Jul-10 18:00N 29°02' W 121°50'816.2
2017-Jul-10 17:30N 28°57' W 121°43'1216.1
2017-Jul-10 16:45N 28°49' W 121°32'516.0
2017-Jul-10 16:27N 28°46' W 121°28'16317.0
2017-Jul-10 06:54N 27°02' W 119°07'6017.7
2017-Jul-10 03:30N 26°22' W 118°16'9517.8
2017-Jul-09 22:10N 25°20' W 116°57'14317.4
2017-Jul-09 13:56N 23°45' W 114°58'716.7
2017-Jul-09 13:30N 23°42' W 114°51'1916.9
2017-Jul-09 12:23N 23°34' W 114°33'716.9
2017-Jul-09 12:00N 23°31' W 114°26'917.1
2017-Jul-09 11:28N 23°27' W 114°18'816.9
2017-Jul-09 11:00N 23°23' W 114°10'816.8
2017-Jul-09 10:30N 23°19' W 114°02'1117.7
2017-Jul-09 09:54N 23°15' W 113°52'718.4
2017-Jul-09 09:30N 23°11' W 113°45'1318.4
2017-Jul-09 08:47N 23°05' W 113°32'1118.5
2017-Jul-09 08:12N 23°00' W 113°21'418.3
2017-Jul-09 07:59N 22°59' W 113°17'1318.3
2017-Jul-09 07:18N 22°53' W 113°05'  
2017-Jul-02 13:09N 22°40' W 113°43'216.8
2017-Jul-02 13:00N 22°42' W 113°45'1216.9
2017-Jul-02 12:19N 22°49' W 113°54'9216.7
2017-Jul-02 06:47N 23°52' W 115°08'1016.7
2017-Jul-02 06:10N 23°59' W 115°16'616.9
2017-Jul-02 05:48N 24°03' W 115°21'616.6
2017-Jul-02 05:27N 24°07' W 115°26'816.7
2017-Jul-02 05:00N 24°12' W 115°32'  

Dump ship's entire track history